EDW256 LSZH-LEMH
Flight info
| Callsign | EDW256 |
|---|---|
| Flight time | 1h 23m |
| Altitude | 35000 |
| Route | VEBIT T50 ROTOS Z669 ULMES DCT VADAR DCT GEVEA DCT INCUS DCT BALSI DCT RETNO DCT TUPOX DCT MTG DCT DIVKO DCT VATIR DCT PIVUS DCT BODEQ DCT VERSO DCT TOSNU L16 SARGO |
| Aircraft | A320/M-SDE2E3FGHIJ1RWXY/LB1 |
Departure
| Time | 2026-04-26 19:23 |
|---|---|
| Airport | Zürich Airport (LSZH) |
Arrival
| Time | 2026-04-26 20:46 |
|---|---|
| Airport | Menorca Airport (LEMH) |
| Time | Latitude | Longitude | Altitude | Speed | Heading |
|---|---|---|---|---|---|
| 2026-04-26 19:06 | 47.45419 | 8.55872 | 1403 ft | 0 kts | 186° |
| 2026-04-26 19:15 | 47.45430 | 8.55876 | 1403 ft | 2 kts | 196° |
| 2026-04-26 19:15 | 47.45444 | 8.55878 | 1403 ft | 0 kts | 183° |
| 2026-04-26 19:16 | 47.45455 | 8.55880 | 1403 ft | 2 kts | 177° |
| 2026-04-26 19:16 | 47.45469 | 8.55875 | 1402 ft | 2 kts | 159° |
| 2026-04-26 19:16 | 47.45483 | 8.55865 | 1402 ft | 2 kts | 143° |
| 2026-04-26 19:16 | 47.45494 | 8.55849 | 1401 ft | 2 kts | 127° |
| 2026-04-26 19:17 | 47.45501 | 8.55830 | 1401 ft | 2 kts | 111° |
| 2026-04-26 19:17 | 47.45504 | 8.55813 | 1400 ft | 0 kts | 98° |
| 2026-04-26 19:17 | 47.45505 | 8.55803 | 1400 ft | 0 kts | 96° |
| 2026-04-26 19:19 | 47.45505 | 8.55804 | 1400 ft | 0 kts | 97° |
| 2026-04-26 19:19 | 47.45503 | 8.55831 | 1401 ft | 5 kts | 97° |
| 2026-04-26 19:20 | 47.45497 | 8.55911 | 1402 ft | 9 kts | 96° |
| 2026-04-26 19:20 | 47.45491 | 8.55984 | 1404 ft | 11 kts | 97° |
| 2026-04-26 19:20 | 47.45481 | 8.56113 | 1409 ft | 7 kts | 97° |
| 2026-04-26 19:20 | 47.45478 | 8.56180 | 1411 ft | 6 kts | 87° |
| 2026-04-26 19:21 | 47.45502 | 8.56240 | 1412 ft | 9 kts | 24° |
| 2026-04-26 19:21 | 47.45591 | 8.56260 | 1408 ft | 16 kts | 7° |
| 2026-04-26 19:21 | 47.45721 | 8.56280 | 1405 ft | 20 kts | 6° |
| 2026-04-26 19:21 | 47.45871 | 8.56302 | 1404 ft | 21 kts | 6° |
| 2026-04-26 19:22 | 47.46020 | 8.56330 | 1403 ft | 21 kts | 6° |
| 2026-04-26 19:22 | 47.46162 | 8.56344 | 1401 ft | 15 kts | 0° |
| 2026-04-26 19:22 | 47.46238 | 8.56296 | 1400 ft | 6 kts | 318° |
| 2026-04-26 19:22 | 47.46318 | 8.56187 | 1398 ft | 52 kts | 317° |
| 2026-04-26 19:23 | 47.46801 | 8.55528 | 1387 ft | 133 kts | 317° |
| 2026-04-26 19:23 | 47.47628 | 8.54401 | 1602 ft | 178 kts | 319° |
| 2026-04-26 19:23 | 47.48618 | 8.53313 | 2396 ft | 182 kts | 327° |
| 2026-04-26 19:23 | 47.49628 | 8.52247 | 3361 ft | 180 kts | 327° |
| 2026-04-26 19:24 | 47.50652 | 8.51161 | 3956 ft | 187 kts | 327° |
| 2026-04-26 19:24 | 47.51761 | 8.49999 | 4388 ft | 204 kts | 324° |
| 2026-04-26 19:24 | 47.53289 | 8.46164 | 5327 ft | 237 kts | 290° |
| 2026-04-26 19:25 | 47.53483 | 8.43742 | 6096 ft | 240 kts | 260° |
| 2026-04-26 19:25 | 47.53157 | 8.42195 | 6718 ft | 237 kts | 247° |
| 2026-04-26 19:25 | 47.52067 | 8.39446 | 7764 ft | 238 kts | 225° |
| 2026-04-26 19:25 | 47.50654 | 8.38201 | 8418 ft | 245 kts | 197° |
| 2026-04-26 19:26 | 47.48936 | 8.37674 | 8842 ft | 261 kts | 191° |
| 2026-04-26 19:26 | 47.47080 | 8.37171 | 9249 ft | 279 kts | 192° |
| 2026-04-26 19:26 | 47.45135 | 8.36600 | 9784 ft | 291 kts | 193° |
| 2026-04-26 19:26 | 47.43135 | 8.35977 | 10531 ft | 295 kts | 194° |
| 2026-04-26 19:27 | 47.41104 | 8.35315 | 11036 ft | 308 kts | 197° |
| 2026-04-26 19:27 | 47.39126 | 8.33945 | 11401 ft | 321 kts | 221° |
| 2026-04-26 19:27 | 47.37730 | 8.31421 | 12069 ft | 322 kts | 242° |
| 2026-04-26 19:27 | 47.36715 | 8.28495 | 12821 ft | 323 kts | 244° |
| 2026-04-26 19:28 | 47.35700 | 8.25550 | 13519 ft | 327 kts | 244° |
| 2026-04-26 19:28 | 47.34663 | 8.22582 | 14188 ft | 330 kts | 244° |
| 2026-04-26 19:28 | 47.33590 | 8.19544 | 14847 ft | 333 kts | 244° |
| 2026-04-26 19:28 | 47.32528 | 8.16554 | 15490 ft | 336 kts | 244° |
| 2026-04-26 19:29 | 47.31439 | 8.13495 | 16115 ft | 339 kts | 244° |
| 2026-04-26 19:29 | 47.30347 | 8.10423 | 16718 ft | 342 kts | 244° |
| 2026-04-26 19:29 | 47.29237 | 8.07304 | 17328 ft | 345 kts | 244° |
| 2026-04-26 19:29 | 47.28112 | 8.04145 | 17925 ft | 348 kts | 244° |
| 2026-04-26 19:30 | 47.27021 | 8.01006 | 18485 ft | 350 kts | 247° |
| 2026-04-26 19:30 | 47.26032 | 7.97704 | 19052 ft | 351 kts | 250° |
| 2026-04-26 19:30 | 47.25109 | 7.94409 | 19586 ft | 354 kts | 250° |
| 2026-04-26 19:30 | 47.24482 | 7.92157 | 19932 ft | 356 kts | 250° |
| 2026-04-26 19:31 | 47.23231 | 7.87670 | 20610 ft | 360 kts | 250° |
| 2026-04-26 19:31 | 47.22265 | 7.84223 | 21127 ft | 363 kts | 250° |
| 2026-04-26 19:31 | 47.21307 | 7.80811 | 21615 ft | 366 kts | 250° |
| 2026-04-26 19:31 | 47.20338 | 7.77361 | 22097 ft | 368 kts | 250° |
| 2026-04-26 19:32 | 47.19237 | 7.73922 | 22567 ft | 373 kts | 245° |
| 2026-04-26 19:32 | 47.17899 | 7.70667 | 23032 ft | 378 kts | 239° |
| 2026-04-26 19:32 | 47.16325 | 7.67560 | 23481 ft | 382 kts | 235° |
| 2026-04-26 19:32 | 47.14662 | 7.64475 | 23930 ft | 385 kts | 234° |
| 2026-04-26 19:33 | 47.13005 | 7.61429 | 24363 ft | 388 kts | 234° |
| 2026-04-26 19:33 | 47.11321 | 7.58331 | 24794 ft | 391 kts | 234° |
| 2026-04-26 19:33 | 47.09610 | 7.55176 | 25225 ft | 394 kts | 234° |
| 2026-04-26 19:33 | 47.07905 | 7.52034 | 25643 ft | 396 kts | 235° |
| 2026-04-26 19:34 | 47.06203 | 7.48895 | 26054 ft | 399 kts | 234° |
| 2026-04-26 19:34 | 47.04453 | 7.45673 | 26456 ft | 402 kts | 235° |
| 2026-04-26 19:34 | 47.02730 | 7.42502 | 26842 ft | 404 kts | 235° |
| 2026-04-26 19:34 | 47.00964 | 7.39263 | 27225 ft | 407 kts | 234° |
| 2026-04-26 19:35 | 46.99195 | 7.36033 | 27584 ft | 409 kts | 234° |
| 2026-04-26 19:35 | 46.97387 | 7.32736 | 27941 ft | 412 kts | 234° |
| 2026-04-26 19:35 | 46.95606 | 7.29493 | 28288 ft | 415 kts | 234° |
| 2026-04-26 19:35 | 46.93794 | 7.26189 | 28635 ft | 417 kts | 234° |
| 2026-04-26 19:36 | 46.91970 | 7.22864 | 28968 ft | 419 kts | 234° |
| 2026-04-26 19:36 | 46.90771 | 7.20679 | 29184 ft | 421 kts | 234° |
| 2026-04-26 19:36 | 46.88326 | 7.16229 | 29590 ft | 424 kts | 234° |
| 2026-04-26 19:36 | 46.86472 | 7.12861 | 29887 ft | 426 kts | 234° |
| 2026-04-26 19:37 | 46.84619 | 7.09495 | 30183 ft | 428 kts | 234° |
| 2026-04-26 19:37 | 46.82735 | 7.06079 | 30464 ft | 431 kts | 234° |
| 2026-04-26 19:37 | 46.80865 | 7.02691 | 30720 ft | 433 kts | 234° |
| 2026-04-26 19:37 | 46.78953 | 6.99231 | 30971 ft | 435 kts | 234° |
| 2026-04-26 19:38 | 46.77054 | 6.95799 | 31232 ft | 437 kts | 234° |
| 2026-04-26 19:38 | 46.75138 | 6.92338 | 31483 ft | 439 kts | 234° |
| 2026-04-26 19:38 | 46.73232 | 6.88900 | 31736 ft | 441 kts | 234° |
| 2026-04-26 19:38 | 46.71300 | 6.85418 | 31977 ft | 442 kts | 234° |
| 2026-04-26 19:39 | 46.69372 | 6.81951 | 32204 ft | 444 kts | 234° |
| 2026-04-26 19:39 | 46.67407 | 6.78424 | 32432 ft | 446 kts | 234° |
| 2026-04-26 19:39 | 46.65419 | 6.74971 | 32634 ft | 449 kts | 231° |
| 2026-04-26 19:39 | 46.63295 | 6.71615 | 32841 ft | 451 kts | 230° |
| 2026-04-26 19:40 | 46.61166 | 6.68311 | 33043 ft | 453 kts | 230° |
| 2026-04-26 19:40 | 46.58993 | 6.64942 | 33268 ft | 453 kts | 230° |
| 2026-04-26 19:40 | 46.56857 | 6.61632 | 33532 ft | 453 kts | 230° |
| 2026-04-26 19:40 | 46.54703 | 6.58295 | 33760 ft | 454 kts | 230° |
| 2026-04-26 19:41 | 46.52549 | 6.54962 | 33957 ft | 455 kts | 230° |
| 2026-04-26 19:41 | 46.50396 | 6.51635 | 34138 ft | 456 kts | 230° |
| 2026-04-26 19:41 | 46.48207 | 6.48252 | 34320 ft | 456 kts | 230° |
| 2026-04-26 19:41 | 46.46778 | 6.46047 | 34437 ft | 457 kts | 230° |
| 2026-04-26 19:42 | 46.43856 | 6.41542 | 34690 ft | 458 kts | 230° |
| 2026-04-26 19:42 | 46.41698 | 6.38220 | 34839 ft | 458 kts | 230° |
| 2026-04-26 19:42 | 46.39513 | 6.34861 | 34972 ft | 459 kts | 229° |
| 2026-04-26 19:42 | 46.37323 | 6.31496 | 35100 ft | 460 kts | 229° |
| 2026-04-26 19:43 | 46.32940 | 6.24781 | 35184 ft | 462 kts | 229° |
| 2026-04-26 19:43 | 46.28161 | 6.18525 | 35182 ft | 466 kts | 218° |
| 2026-04-26 19:44 | 46.22528 | 6.13902 | 35178 ft | 469 kts | 204° |
| 2026-04-26 19:44 | 46.16279 | 6.11177 | 35179 ft | 472 kts | 191° |
| 2026-04-26 19:45 | 46.09755 | 6.09721 | 35180 ft | 472 kts | 189° |
| 2026-04-26 19:45 | 46.03312 | 6.08344 | 35180 ft | 472 kts | 189° |
| 2026-04-26 19:46 | 45.96790 | 6.06908 | 35184 ft | 471 kts | 189° |
| 2026-04-26 19:46 | 45.90295 | 6.05465 | 35181 ft | 470 kts | 189° |
| 2026-04-26 19:47 | 45.84872 | 6.04264 | 35182 ft | 471 kts | 189° |
| 2026-04-26 19:47 | 45.77309 | 6.02597 | 35173 ft | 470 kts | 189° |
| 2026-04-26 19:48 | 45.70868 | 6.01179 | 35175 ft | 469 kts | 189° |
| 2026-04-26 19:48 | 45.64399 | 5.99754 | 35168 ft | 468 kts | 189° |
| 2026-04-26 19:49 | 45.57996 | 5.98344 | 35166 ft | 468 kts | 189° |
| 2026-04-26 19:49 | 45.51563 | 5.96932 | 35170 ft | 468 kts | 189° |
| 2026-04-26 19:50 | 45.45164 | 5.95300 | 35177 ft | 466 kts | 193° |
| 2026-04-26 19:50 | 45.38825 | 5.93322 | 35211 ft | 465 kts | 193° |
| 2026-04-26 19:51 | 45.32513 | 5.91354 | 35232 ft | 464 kts | 193° |
| 2026-04-26 19:51 | 45.26207 | 5.89390 | 35238 ft | 465 kts | 193° |
| 2026-04-26 19:52 | 45.19899 | 5.87428 | 35249 ft | 464 kts | 193° |
| 2026-04-26 19:52 | 45.13625 | 5.85482 | 35251 ft | 464 kts | 193° |
| 2026-04-26 19:53 | 45.07299 | 5.83526 | 35255 ft | 465 kts | 193° |
| 2026-04-26 19:53 | 45.00989 | 5.81580 | 35251 ft | 466 kts | 193° |
| 2026-04-26 19:54 | 44.94643 | 5.79627 | 35239 ft | 465 kts | 193° |
| 2026-04-26 19:54 | 44.88354 | 5.77696 | 35237 ft | 464 kts | 193° |
| 2026-04-26 19:55 | 44.82037 | 5.75760 | 35223 ft | 464 kts | 193° |
| 2026-04-26 19:55 | 44.75738 | 5.73832 | 35213 ft | 464 kts | 193° |
| 2026-04-26 19:56 | 44.69416 | 5.71901 | 35210 ft | 463 kts | 193° |
| 2026-04-26 19:56 | 44.63098 | 5.69977 | 35199 ft | 464 kts | 193° |
| 2026-04-26 19:57 | 44.56783 | 5.68056 | 35197 ft | 465 kts | 193° |
| 2026-04-26 19:57 | 44.50451 | 5.66134 | 35191 ft | 463 kts | 194° |
| 2026-04-26 19:58 | 44.44152 | 5.64227 | 35194 ft | 463 kts | 194° |
| 2026-04-26 19:58 | 44.37922 | 5.62087 | 35195 ft | 462 kts | 199° |
| 2026-04-26 19:59 | 44.31899 | 5.59063 | 35181 ft | 461 kts | 203° |
| 2026-04-26 19:59 | 44.25906 | 5.55764 | 35181 ft | 461 kts | 203° |
| 2026-04-26 20:00 | 44.19973 | 5.52515 | 35180 ft | 461 kts | 203° |
| 2026-04-26 20:00 | 44.13992 | 5.49250 | 35170 ft | 461 kts | 203° |
| 2026-04-26 20:01 | 44.08020 | 5.45997 | 35164 ft | 461 kts | 203° |
| 2026-04-26 20:01 | 44.02067 | 5.42762 | 35158 ft | 461 kts | 204° |
| 2026-04-26 20:02 | 43.96075 | 5.39516 | 35159 ft | 461 kts | 204° |
| 2026-04-26 20:02 | 43.91142 | 5.36852 | 35155 ft | 461 kts | 204° |
| 2026-04-26 20:03 | 43.84155 | 5.33081 | 35141 ft | 460 kts | 203° |
| 2026-04-26 20:03 | 43.78191 | 5.29866 | 35137 ft | 461 kts | 203° |
| 2026-04-26 20:04 | 43.72218 | 5.26654 | 35135 ft | 461 kts | 203° |
| 2026-04-26 20:04 | 43.66233 | 5.23444 | 35132 ft | 462 kts | 203° |
| 2026-04-26 20:05 | 43.60240 | 5.20230 | 35137 ft | 462 kts | 203° |
| 2026-04-26 20:05 | 43.54261 | 5.17032 | 35138 ft | 460 kts | 203° |
| 2026-04-26 20:06 | 43.48295 | 5.13848 | 35140 ft | 460 kts | 203° |
| 2026-04-26 20:06 | 43.42364 | 5.10612 | 35135 ft | 460 kts | 206° |
| 2026-04-26 20:07 | 43.36667 | 5.06658 | 35135 ft | 458 kts | 213° |
| 2026-04-26 20:07 | 43.31363 | 5.01915 | 35137 ft | 456 kts | 217° |
| 2026-04-26 20:08 | 43.26152 | 4.96983 | 35136 ft | 455 kts | 217° |
| 2026-04-26 20:08 | 43.20925 | 4.92059 | 35144 ft | 455 kts | 217° |
| 2026-04-26 20:09 | 43.15734 | 4.87185 | 35141 ft | 455 kts | 217° |
| 2026-04-26 20:09 | 43.10498 | 4.82281 | 35141 ft | 455 kts | 217° |
| 2026-04-26 20:10 | 43.05254 | 4.77512 | 35146 ft | 455 kts | 214° |
| 2026-04-26 20:10 | 42.99728 | 4.73253 | 35143 ft | 456 kts | 212° |
| 2026-04-26 20:11 | 42.94215 | 4.69082 | 35154 ft | 456 kts | 212° |
| 2026-04-26 20:12 | 42.85899 | 4.62798 | 35155 ft | 456 kts | 212° |
| 2026-04-26 20:12 | 42.80360 | 4.58621 | 35147 ft | 456 kts | 212° |
| 2026-04-26 20:13 | 42.74824 | 4.54453 | 35150 ft | 455 kts | 212° |
| 2026-04-26 20:13 | 42.69275 | 4.50285 | 35143 ft | 455 kts | 212° |
| 2026-04-26 20:14 | 42.63731 | 4.46127 | 35145 ft | 456 kts | 212° |
| 2026-04-26 20:14 | 42.58202 | 4.41991 | 35142 ft | 456 kts | 212° |
| 2026-04-26 20:15 | 42.52629 | 4.37831 | 35142 ft | 456 kts | 212° |
| 2026-04-26 20:15 | 42.47087 | 4.33701 | 35147 ft | 456 kts | 211° |
| 2026-04-26 20:16 | 42.41529 | 4.29567 | 35145 ft | 455 kts | 211° |
| 2026-04-26 20:16 | 42.35986 | 4.25453 | 35139 ft | 455 kts | 212° |
| 2026-04-26 20:17 | 42.30431 | 4.21338 | 35142 ft | 455 kts | 211° |
| 2026-04-26 20:17 | 42.24887 | 4.17238 | 35145 ft | 455 kts | 212° |
| 2026-04-26 20:18 | 42.19339 | 4.13143 | 35148 ft | 456 kts | 212° |
| 2026-04-26 20:18 | 42.13815 | 4.09078 | 35144 ft | 455 kts | 212° |
| 2026-04-26 20:19 | 42.08256 | 4.04995 | 35143 ft | 454 kts | 211° |
| 2026-04-26 20:19 | 42.02701 | 4.00924 | 35146 ft | 454 kts | 212° |
| 2026-04-26 20:20 | 41.97142 | 3.97012 | 35144 ft | 454 kts | 208° |
| 2026-04-26 20:20 | 41.91262 | 3.93879 | 34946 ft | 458 kts | 201° |
| 2026-04-26 20:20 | 41.88181 | 3.92658 | 34457 ft | 458 kts | 198° |
| 2026-04-26 20:21 | 41.85117 | 3.91711 | 33769 ft | 458 kts | 194° |
| 2026-04-26 20:21 | 41.81950 | 3.90957 | 33021 ft | 458 kts | 192° |
| 2026-04-26 20:21 | 41.78831 | 3.90245 | 32417 ft | 454 kts | 192° |
| 2026-04-26 20:21 | 41.75735 | 3.89537 | 31961 ft | 447 kts | 192° |
| 2026-04-26 20:22 | 41.72723 | 3.88848 | 31499 ft | 441 kts | 192° |
| 2026-04-26 20:22 | 41.69713 | 3.88155 | 31029 ft | 436 kts | 192° |
| 2026-04-26 20:22 | 41.66735 | 3.87468 | 30566 ft | 430 kts | 192° |
| 2026-04-26 20:22 | 41.63836 | 3.86800 | 30113 ft | 425 kts | 192° |
| 2026-04-26 20:23 | 41.60943 | 3.86134 | 29661 ft | 420 kts | 192° |
| 2026-04-26 20:23 | 41.58049 | 3.85468 | 29202 ft | 416 kts | 191° |
| 2026-04-26 20:23 | 41.55254 | 3.84828 | 28760 ft | 411 kts | 191° |
| 2026-04-26 20:23 | 41.52446 | 3.84186 | 28311 ft | 407 kts | 191° |
| 2026-04-26 20:24 | 41.49668 | 3.83550 | 27862 ft | 403 kts | 191° |
| 2026-04-26 20:24 | 41.46929 | 3.82923 | 27421 ft | 399 kts | 191° |
| 2026-04-26 20:24 | 41.44209 | 3.82301 | 26984 ft | 395 kts | 191° |
| 2026-04-26 20:24 | 41.41505 | 3.81681 | 26546 ft | 392 kts | 191° |
| 2026-04-26 20:25 | 41.38851 | 3.81074 | 26113 ft | 388 kts | 191° |
| 2026-04-26 20:25 | 41.37049 | 3.80663 | 25817 ft | 386 kts | 191° |
| 2026-04-26 20:25 | 41.33544 | 3.79861 | 25237 ft | 382 kts | 191° |
| 2026-04-26 20:25 | 41.30934 | 3.79265 | 24806 ft | 380 kts | 191° |
| 2026-04-26 20:26 | 41.28355 | 3.78677 | 24377 ft | 377 kts | 191° |
| 2026-04-26 20:26 | 41.25768 | 3.78087 | 23946 ft | 375 kts | 191° |
| 2026-04-26 20:26 | 41.23225 | 3.77508 | 23520 ft | 373 kts | 190° |
| 2026-04-26 20:26 | 41.20694 | 3.76933 | 23096 ft | 371 kts | 190° |
| 2026-04-26 20:27 | 41.18129 | 3.76359 | 22666 ft | 369 kts | 188° |
| 2026-04-26 20:27 | 41.15594 | 3.76150 | 22240 ft | 368 kts | 179° |
| 2026-04-26 20:27 | 41.13073 | 3.76515 | 21814 ft | 366 kts | 169° |
| 2026-04-26 20:27 | 41.10587 | 3.77336 | 21391 ft | 365 kts | 165° |
| 2026-04-26 20:28 | 41.08153 | 3.78246 | 20972 ft | 363 kts | 164° |
| 2026-04-26 20:28 | 41.05757 | 3.79146 | 20556 ft | 361 kts | 165° |
| 2026-04-26 20:28 | 41.03335 | 3.80041 | 20135 ft | 360 kts | 165° |
| 2026-04-26 20:28 | 41.00938 | 3.80915 | 19718 ft | 358 kts | 165° |
| 2026-04-26 20:29 | 40.98545 | 3.81783 | 19296 ft | 357 kts | 165° |
| 2026-04-26 20:29 | 40.96139 | 3.82653 | 18869 ft | 356 kts | 165° |
| 2026-04-26 20:29 | 40.93773 | 3.83506 | 18457 ft | 354 kts | 165° |
| 2026-04-26 20:29 | 40.91379 | 3.84368 | 18036 ft | 353 kts | 165° |
| 2026-04-26 20:30 | 40.89009 | 3.85223 | 17597 ft | 352 kts | 165° |
| 2026-04-26 20:30 | 40.86659 | 3.86070 | 17142 ft | 352 kts | 165° |
| 2026-04-26 20:30 | 40.84293 | 3.86921 | 16703 ft | 352 kts | 165° |
| 2026-04-26 20:30 | 40.81926 | 3.87773 | 16258 ft | 351 kts | 165° |
| 2026-04-26 20:31 | 40.79606 | 3.88608 | 15831 ft | 350 kts | 165° |
| 2026-04-26 20:31 | 40.77232 | 3.89459 | 15407 ft | 349 kts | 165° |
| 2026-04-26 20:31 | 40.74896 | 3.90297 | 14981 ft | 348 kts | 165° |
| 2026-04-26 20:31 | 40.72564 | 3.91132 | 14563 ft | 347 kts | 165° |
| 2026-04-26 20:32 | 40.70231 | 3.91967 | 14139 ft | 346 kts | 164° |
| 2026-04-26 20:32 | 40.67921 | 3.92794 | 13716 ft | 345 kts | 164° |
| 2026-04-26 20:32 | 40.65615 | 3.93620 | 13296 ft | 343 kts | 164° |
| 2026-04-26 20:32 | 40.63303 | 3.94446 | 12869 ft | 341 kts | 164° |
| 2026-04-26 20:33 | 40.61028 | 3.95260 | 12454 ft | 339 kts | 164° |
| 2026-04-26 20:33 | 40.58759 | 3.96069 | 12046 ft | 337 kts | 164° |
| 2026-04-26 20:33 | 40.56502 | 3.96874 | 11629 ft | 335 kts | 164° |
| 2026-04-26 20:33 | 40.54259 | 3.97673 | 11244 ft | 332 kts | 163° |
| 2026-04-26 20:34 | 40.52068 | 3.98454 | 10861 ft | 329 kts | 163° |
| 2026-04-26 20:34 | 40.49862 | 3.99239 | 10465 ft | 326 kts | 163° |
| 2026-04-26 20:34 | 40.47713 | 4.00004 | 10264 ft | 309 kts | 163° |
| 2026-04-26 20:34 | 40.45707 | 4.00717 | 10166 ft | 293 kts | 163° |
| 2026-04-26 20:35 | 40.43738 | 4.01416 | 9908 ft | 293 kts | 163° |
| 2026-04-26 20:35 | 40.41775 | 4.02115 | 9553 ft | 291 kts | 163° |
| 2026-04-26 20:35 | 40.39851 | 4.02801 | 9210 ft | 289 kts | 163° |
| 2026-04-26 20:35 | 40.37914 | 4.03489 | 8872 ft | 287 kts | 163° |
| 2026-04-26 20:36 | 40.35983 | 4.04174 | 8533 ft | 286 kts | 163° |
| 2026-04-26 20:36 | 40.34062 | 4.04854 | 8195 ft | 284 kts | 163° |
| 2026-04-26 20:36 | 40.32165 | 4.05526 | 7865 ft | 282 kts | 163° |
| 2026-04-26 20:36 | 40.30284 | 4.06193 | 7538 ft | 280 kts | 163° |
| 2026-04-26 20:37 | 40.28417 | 4.06853 | 7227 ft | 277 kts | 163° |
| 2026-04-26 20:37 | 40.26590 | 4.07498 | 6842 ft | 269 kts | 163° |
| 2026-04-26 20:37 | 40.24826 | 4.08119 | 6524 ft | 257 kts | 163° |
| 2026-04-26 20:37 | 40.23117 | 4.08723 | 6269 ft | 252 kts | 162° |
| 2026-04-26 20:38 | 40.21418 | 4.09323 | 6046 ft | 247 kts | 162° |
| 2026-04-26 20:38 | 40.19793 | 4.09897 | 5856 ft | 241 kts | 162° |
| 2026-04-26 20:38 | 40.18178 | 4.10467 | 5604 ft | 238 kts | 162° |
| 2026-04-26 20:38 | 40.16581 | 4.11030 | 5319 ft | 236 kts | 162° |
| 2026-04-26 20:39 | 40.14996 | 4.11590 | 5030 ft | 235 kts | 162° |
| 2026-04-26 20:39 | 40.13960 | 4.11957 | 4840 ft | 234 kts | 163° |
| 2026-04-26 20:39 | 40.11880 | 4.12734 | 4451 ft | 231 kts | 154° |
| 2026-04-26 20:39 | 40.10602 | 4.13958 | 4148 ft | 225 kts | 126° |
| 2026-04-26 20:40 | 40.09915 | 4.15734 | 3901 ft | 218 kts | 104° |
| 2026-04-26 20:40 | 40.09535 | 4.17611 | 3597 ft | 211 kts | 103° |
| 2026-04-26 20:40 | 40.09184 | 4.19435 | 3278 ft | 203 kts | 103° |
| 2026-04-26 20:40 | 40.08838 | 4.21190 | 3242 ft | 198 kts | 103° |
| 2026-04-26 20:41 | 40.08485 | 4.22937 | 3211 ft | 199 kts | 103° |
| 2026-04-26 20:41 | 40.08118 | 4.24679 | 3140 ft | 199 kts | 107° |
| 2026-04-26 20:41 | 40.07309 | 4.26109 | 3028 ft | 203 kts | 144° |
| 2026-04-26 20:41 | 40.05957 | 4.26549 | 2955 ft | 207 kts | 183° |
| 2026-04-26 20:42 | 40.04550 | 4.26074 | 2874 ft | 209 kts | 197° |
| 2026-04-26 20:42 | 40.03162 | 4.25516 | 2756 ft | 206 kts | 194° |
| 2026-04-26 20:42 | 40.01802 | 4.25100 | 2620 ft | 194 kts | 190° |
| 2026-04-26 20:42 | 40.00502 | 4.24786 | 2444 ft | 187 kts | 188° |
| 2026-04-26 20:43 | 39.99254 | 4.24525 | 2494 ft | 180 kts | 187° |
| 2026-04-26 20:43 | 39.98059 | 4.24283 | 2430 ft | 162 kts | 187° |
| 2026-04-26 20:43 | 39.96997 | 4.24067 | 2221 ft | 149 kts | 187° |
| 2026-04-26 20:43 | 39.96010 | 4.23866 | 2013 ft | 141 kts | 187° |
| 2026-04-26 20:44 | 39.95039 | 4.23667 | 1840 ft | 140 kts | 187° |
| 2026-04-26 20:44 | 39.94066 | 4.23468 | 1662 ft | 140 kts | 187° |
| 2026-04-26 20:44 | 39.93107 | 4.23271 | 1483 ft | 139 kts | 187° |
| 2026-04-26 20:44 | 39.92147 | 4.23073 | 1299 ft | 138 kts | 187° |
| 2026-04-26 20:45 | 39.91196 | 4.22878 | 1111 ft | 137 kts | 187° |
| 2026-04-26 20:45 | 39.90238 | 4.22691 | 923 ft | 137 kts | 187° |
| 2026-04-26 20:45 | 39.89291 | 4.22495 | 719 ft | 136 kts | 187° |
| 2026-04-26 20:45 | 39.88360 | 4.22303 | 547 ft | 135 kts | 188° |
| 2026-04-26 20:46 | 39.87427 | 4.22106 | 373 ft | 135 kts | 188° |
| 2026-04-26 20:46 | 39.86534 | 4.21919 | 293 ft | 119 kts | 188° |
| 2026-04-26 20:46 | 39.85880 | 4.21788 | 287 ft | 70 kts | 188° |
| 2026-04-26 20:46 | 39.85582 | 4.21765 | 282 ft | 31 kts | 165° |
| 2026-04-26 20:47 | 39.85462 | 4.21819 | 279 ft | 6 kts | 158° |
| 2026-04-26 20:47 | 39.85431 | 4.21837 | 278 ft | 1 kts | 154° |
| 2026-04-26 20:47 | 39.85425 | 4.21841 | 278 ft | 1 kts | 154° |
| 2026-04-26 20:48 | 39.85405 | 4.21866 | 277 ft | 6 kts | 112° |
| 2026-04-26 20:48 | 39.85422 | 4.21927 | 277 ft | 9 kts | 30° |
| 2026-04-26 20:48 | 39.85493 | 4.21947 | 278 ft | 11 kts | 9° |
| 2026-04-26 20:48 | 39.85578 | 4.21964 | 280 ft | 13 kts | 9° |
| 2026-04-26 20:49 | 39.85672 | 4.21983 | 281 ft | 14 kts | 8° |
| 2026-04-26 20:49 | 39.85778 | 4.22004 | 283 ft | 15 kts | 9° |
| 2026-04-26 20:49 | 39.85892 | 4.22028 | 284 ft | 17 kts | 9° |
| 2026-04-26 20:49 | 39.86009 | 4.22053 | 285 ft | 17 kts | 9° |
| 2026-04-26 20:50 | 39.86126 | 4.22076 | 284 ft | 13 kts | 9° |
| 2026-04-26 20:50 | 39.86190 | 4.22121 | 282 ft | 12 kts | 79° |
| 2026-04-26 20:50 | 39.86191 | 4.22246 | 280 ft | 14 kts | 54° |
| 2026-04-26 20:50 | 39.86292 | 4.22281 | 279 ft | 15 kts | 8° |
| 2026-04-26 20:51 | 39.86345 | 4.22292 | 279 ft | 4 kts | 8° |
| 2026-04-26 20:51 | 39.86381 | 4.22319 | 279 ft | 7 kts | 73° |
| 2026-04-26 20:51 | 39.86372 | 4.22382 | 277 ft | 5 kts | 98° |
| 2026-04-26 20:51 | 39.86370 | 4.22401 | 277 ft | 0 kts | 99° |